This is the latest recevied weather packets stored in our database for station/object WC4PEM. If no packets are shown the sender has not sent any weather packets the latest 10 day(s).
| Time | Temp. | Humidity | Pressure | Rain* | Wind** | Luminosity | Snow |
|---|---|---|---|---|---|---|---|
| 1777476884 | 29.44° C | 59% | 1016.7 hPa | 0 mm | - | - | - |
| 1777476584 | 29.44° C | 61% | 1016.8 hPa | 0 mm | - | - | - |
| 1777476283 | 28.89° C | 63% | 1016.9 hPa | 0 mm | - | - | - |
| 1777476129 | 28.33° C | 63% | 1016.9 hPa | 0 mm | - | - | - |
| 1777475984 | 28.33° C | 63% | 1016.9 hPa | 0 mm | - | - | - |
| 1777475684 | 28.33° C | 64% | 1016.9 hPa | 0 mm | - | - | - |
| 1777475540 | 27.78° C | 65% | 1017.1 hPa | 0 mm | - | - | - |
| 1777475513 | 28.33° C | 63% | 1017 hPa | 0 mm | - | - | - |
| 1777475383 | 28.33° C | 63% | 1017 hPa | 0 mm | - | - | - |
| 1777475239 | 28.33° C | 63% | 1017.1 hPa | 0 mm | - | - | - |
| 1777475084 | 28.33° C | 63% | 1017.1 hPa | 0 mm | - | - | - |
| 1777474868 | 27.78° C | 65% | 1017.2 hPa | 0 mm | - | - | - |
| 1777474784 | 27.78° C | 65% | 1017.2 hPa | 0 mm | - | - | - |
| 1777474484 | 27.78° C | 66% | 1017.2 hPa | 0 mm | - | - | - |
| 1777474184 | 27.78° C | 65% | 1017.1 hPa | 0 mm | - | - | - |
| 1777474037 | 27.78° C | 67% | 1017.1 hPa | 0 mm | - | - | - |
| 1777473884 | 27.78° C | 67% | 1017.1 hPa | 0 mm | - | - | - |
| 1777473584 | 27.78° C | 68% | 1017 hPa | 0 mm | - | - | - |
| 1777473437 | 27.78° C | 69% | 1017.1 hPa | 0 mm | - | - | - |
| 1777473284 | 27.78° C | 69% | 1017.1 hPa | 0 mm | - | - | - |
| 1777473082 | 27.22° C | 71% | 1017.2 hPa | 0 mm | - | - | - |
| 1777472984 | 27.78° C | 69% | 1017.2 hPa | 0 mm | - | - | - |
| 1777472879 | 27.22° C | 71% | 1017.3 hPa | 0 mm | - | - | - |
| 1777472684 | 27.22° C | 71% | 1017.3 hPa | 0 mm | - | - | - |
| 1777472384 | 27.22° C | 71% | 1017.2 hPa | 0 mm | - | - | - |
* Rain latest hour (hover to see other rain measurements)
** Current wind speed in m/s (hover to see current wind gust speed)